sensor_id;sensor_type;location;lat;lon;timestamp;pressure;altitude;pressure_sealevel;temperature;humidity
74427;BME280;62859;53.906;27.430;2023-08-24T00:00:40;1009.4;;;22;47
74427;BME280;62859;53.906;27.430;2023-08-24T00:06:08;1009.4;;;21.9;47.2
74427;BME280;62859;53.906;27.430;2023-08-24T00:10:30;1009.4;;;21.9;47.3
74427;BME280;62859;53.906;27.430;2023-08-24T00:15:30;1009.4;;;21.8;47.4
74427;BME280;62859;53.906;27.430;2023-08-24T00:21:06;1009.4;;;21.7;47.5
74427;BME280;62859;53.906;27.430;2023-08-24T00:25:31;1009.4;;;21.6;47.7
74427;BME280;62859;53.906;27.430;2023-08-24T00:30:34;1009.3;;;21.6;47.9
74427;BME280;62859;53.906;27.430;2023-08-24T00:35:58;1009.2;;;21.5;47.8
74427;BME280;62859;53.906;27.430;2023-08-24T00:40:51;1009.2;;;21.6;47.7
74427;BME280;62859;53.906;27.430;2023-08-24T00:45:30;1009.2;;;21.6;47.7
74427;BME280;62859;53.906;27.430;2023-08-24T00:50:46;1009.2;;;21.6;47.6
74427;BME280;62859;53.906;27.430;2023-08-24T00:56:04;1009.3;;;21.5;47.9
74427;BME280;62859;53.906;27.430;2023-08-24T01:00:52;1009.3;;;21.5;48
74427;BME280;62859;53.906;27.430;2023-08-24T01:05:44;1009.3;;;21.4;48.1
74427;BME280;62859;53.906;27.430;2023-08-24T01:10:40;1009.3;;;21.4;48.1
74427;BME280;62859;53.906;27.430;2023-08-24T01:15:32;1009.2;;;21.4;48.1
74427;BME280;62859;53.906;27.430;2023-08-24T01:20:44;1009.2;;;21.4;48.1
74427;BME280;62859;53.906;27.430;2023-08-24T01:26:10;1009.2;;;21.4;48.1
74427;BME280;62859;53.906;27.430;2023-08-24T01:30:44;1009.2;;;21.3;48.2
74427;BME280;62859;53.906;27.430;2023-08-24T01:35:42;1009.2;;;21.3;48.2
74427;BME280;62859;53.906;27.430;2023-08-24T01:41:09;1009.2;;;21.2;48.2
74427;BME280;62859;53.906;27.430;2023-08-24T01:45:32;1009.3;;;21.3;48.1
74427;BME280;62859;53.906;27.430;2023-08-24T01:50:48;1009.3;;;21.3;48.1
74427;BME280;62859;53.906;27.430;2023-08-24T01:55:54;1009.2;;;21.3;48
74427;BME280;62859;53.906;27.430;2023-08-24T02:01:06;1009.1;;;21.2;48
74427;BME280;62859;53.906;27.430;2023-08-24T02:06:08;1009.1;;;21.3;48
74427;BME280;62859;53.906;27.430;2023-08-24T02:11:06;1009.1;;;21.3;47.9
74427;BME280;62859;53.906;27.430;2023-08-24T02:16:07;1009.1;;;21.2;48.1
74427;BME280;62859;53.906;27.430;2023-08-24T02:20:34;1009.1;;;21.2;48.2
74427;BME280;62859;53.906;27.430;2023-08-24T02:25:30;1009.1;;;21.1;48.5
74427;BME280;62859;53.906;27.430;2023-08-24T02:30:38;1009.1;;;21;48.7
74427;BME280;62859;53.906;27.430;2023-08-24T02:36:06;1009.1;;;21;48.7
74427;BME280;62859;53.906;27.430;2023-08-24T02:40:46;1009.1;;;21;49
74427;BME280;62859;53.906;27.430;2023-08-24T02:45:48;1009;;;21;49.1
74427;BME280;62859;53.906;27.430;2023-08-24T02:51:06;1009;;;21;49.1
74427;BME280;62859;53.906;27.430;2023-08-24T02:55:42;1009.1;;;21;49.2
74427;BME280;62859;53.906;27.430;2023-08-24T03:00:44;1009.1;;;21;49.3
74427;BME280;62859;53.906;27.430;2023-08-24T03:05:58;1009.1;;;20.9;49.4
74427;BME280;62859;53.906;27.430;2023-08-24T03:10:52;1009.1;;;20.9;49.5
74427;BME280;62859;53.906;27.430;2023-08-24T03:15:59;1009.1;;;20.9;49.8
74427;BME280;62859;53.906;27.430;2023-08-24T03:21:08;1009.2;;;20.9;49.8
74427;BME280;62859;53.906;27.430;2023-08-24T03:25:36;1009.3;;;20.8;50.1
74427;BME280;62859;53.906;27.430;2023-08-24T03:30:46;1009.3;;;20.7;50.4
74427;BME280;62859;53.906;27.430;2023-08-24T03:36:08;1009.3;;;20.7;50.5
74427;BME280;62859;53.906;27.430;2023-08-24T03:40:46;1009.3;;;20.7;50.5
74427;BME280;62859;53.906;27.430;2023-08-24T03:45:30;1009.3;;;20.6;50.6
74427;BME280;62859;53.906;27.430;2023-08-24T03:50:32;1009.3;;;20.5;50.7
74427;BME280;62859;53.906;27.430;2023-08-24T03:56:06;1009.3;;;20.6;50.8
74427;BME280;62859;53.906;27.430;2023-08-24T04:00:30;1009.4;;;20.6;50.5
74427;BME280;62859;53.906;27.430;2023-08-24T04:05:34;1009.4;;;20.6;50.7
74427;BME280;62859;53.906;27.430;2023-08-24T04:10:46;1009.4;;;20.6;50.7
74427;BME280;62859;53.906;27.430;2023-08-24T04:15:30;1009.4;;;20.7;50.8
74427;BME280;62859;53.906;27.430;2023-08-24T04:20:36;1009.4;;;20.7;50.8
74427;BME280;62859;53.906;27.430;2023-08-24T04:25:54;1009.4;;;20.6;50.7
74427;BME280;62859;53.906;27.430;2023-08-24T04:31:06;1009.4;;;20.5;50.8
74427;BME280;62859;53.906;27.430;2023-08-24T04:35:42;1009.4;;;20.5;51
74427;BME280;62859;53.906;27.430;2023-08-24T04:40:45;1009.3;;;20.5;50.9
74427;BME280;62859;53.906;27.430;2023-08-24T04:46:06;1009.3;;;20.6;50.8
74427;BME280;62859;53.906;27.430;2023-08-24T04:50:58;1009.2;;;20.6;50.8
74427;BME280;62859;53.906;27.430;2023-08-24T04:56:06;1009.3;;;20.7;50.9
74427;BME280;62859;53.906;27.430;2023-08-24T05:00:54;1009.3;;;20.8;50.7
74427;BME280;62859;53.906;27.430;2023-08-24T05:05:52;1009.3;;;20.8;50.6
74427;BME280;62859;53.906;27.430;2023-08-24T05:10:34;1009.3;;;20.8;50.6
74427;BME280;62859;53.906;27.430;2023-08-24T05:15:34;1009.3;;;20.9;50.5
74427;BME280;62859;53.906;27.430;2023-08-24T05:21:06;1009.4;;;20.9;50.6
74427;BME280;62859;53.906;27.430;2023-08-24T05:25:32;1009.4;;;21;50.7
74427;BME280;62859;53.906;27.430;2023-08-24T05:30:30;1009.5;;;21.1;50.5
74427;BME280;62859;53.906;27.430;2023-08-24T05:35:40;1009.5;;;21.1;50.3
74427;BME280;62859;53.906;27.430;2023-08-24T05:40:30;1009.5;;;21.2;50.3
74427;BME280;62859;53.906;27.430;2023-08-24T05:45:30;1009.5;;;21.2;50.2
74427;BME280;62859;53.906;27.430;2023-08-24T05:51:06;1009.5;;;21.2;50.2
74427;BME280;62859;53.906;27.430;2023-08-24T05:55:34;1009.5;;;21.2;50.4
74427;BME280;62859;53.906;27.430;2023-08-24T06:00:55;1009.5;;;21.4;50.7
74427;BME280;62859;53.906;27.430;2023-08-24T06:06:06;1009.5;;;21.9;49.7
74427;BME280;62859;53.906;27.430;2023-08-24T06:10:52;1009.4;;;22.3;48.8
74427;BME280;62859;53.906;27.430;2023-08-24T06:15:30;1009.4;;;22.6;48
74427;BME280;62859;53.906;27.430;2023-08-24T06:20:54;1009.4;;;22.9;47.5
74427;BME280;62859;53.906;27.430;2023-08-24T06:26:06;1009.4;;;23.2;46.9
74427;BME280;62859;53.906;27.430;2023-08-24T06:31:06;1009.3;;;23.4;46.1
74427;BME280;62859;53.906;27.430;2023-08-24T06:36:06;1009.3;;;23.5;45.8
74427;BME280;62859;53.906;27.430;2023-08-24T06:41:06;1009.4;;;23.6;45.7
74427;BME280;62859;53.906;27.430;2023-08-24T06:45:40;1009.4;;;23.5;45.4
74427;BME280;62859;53.906;27.430;2023-08-24T06:50:30;1009.4;;;23.5;45.7
74427;BME280;62859;53.906;27.430;2023-08-24T06:55:56;1009.5;;;23.6;45.7
74427;BME280;62859;53.906;27.430;2023-08-24T07:01:06;1009.6;;;23.8;45.6
74427;BME280;62859;53.906;27.430;2023-08-24T07:05:58;1009.6;;;23.9;45.5
74427;BME280;62859;53.906;27.430;2023-08-24T07:10:32;1009.6;;;24;45.5
74427;BME280;62859;53.906;27.430;2023-08-24T07:16:06;1009.6;;;24.1;45.2
74427;BME280;62859;53.906;27.430;2023-08-24T07:20:30;1009.6;;;24.2;45.1
74427;BME280;62859;53.906;27.430;2023-08-24T07:25:58;1009.7;;;24.2;44.9
74427;BME280;62859;53.906;27.430;2023-08-24T07:30:46;1009.7;;;24.4;44.7
74427;BME280;62859;53.906;27.430;2023-08-24T07:36:06;1009.7;;;24.6;44.3
74427;BME280;62859;53.906;27.430;2023-08-24T07:40:58;1009.7;;;24.7;43.9
74427;BME280;62859;53.906;27.430;2023-08-24T07:46:04;1009.8;;;24.8;43.5
74427;BME280;62859;53.906;27.430;2023-08-24T07:50:40;1009.8;;;25;43.2
74427;BME280;62859;53.906;27.430;2023-08-24T07:55:30;1009.8;;;25.2;42.6
74427;BME280;62859;53.906;27.430;2023-08-24T08:01:06;1009.8;;;25.4;42
74427;BME280;62859;53.906;27.430;2023-08-24T08:05:46;1009.9;;;25.5;41.2
74427;BME280;62859;53.906;27.430;2023-08-24T08:11:00;1009.8;;;25.5;40.6
74427;BME280;62859;53.906;27.430;2023-08-24T08:16:01;1009.8;;;25.6;40.4
74427;BME280;62859;53.906;27.430;2023-08-24T08:20:30;1009.8;;;25.7;40.1
74427;BME280;62859;53.906;27.430;2023-08-24T08:25:42;1009.8;;;25.6;40
74427;BME280;62859;53.906;27.430;2023-08-24T08:31:04;1009.8;;;25.5;40
74427;BME280;62859;53.906;27.430;2023-08-24T08:35:54;1009.8;;;25.6;40.3
74427;BME280;62859;53.906;27.430;2023-08-24T08:40:36;1009.8;;;25.6;39.9
74427;BME280;62859;53.906;27.430;2023-08-24T08:45:54;1009.8;;;25.5;39.4
74427;BME280;62859;53.906;27.430;2023-08-24T08:50:40;1009.9;;;25.4;39.6
74427;BME280;62859;53.906;27.430;2023-08-24T08:56:06;1009.9;;;25.3;39.8
74427;BME280;62859;53.906;27.430;2023-08-24T09:01:06;1009.8;;;25.2;40.2
74427;BME280;62859;53.906;27.430;2023-08-24T09:06:06;1009.8;;;25.4;40.2
74427;BME280;62859;53.906;27.430;2023-08-24T09:10:34;1009.8;;;25.7;39.4
74427;BME280;62859;53.906;27.430;2023-08-24T09:15:42;1009.8;;;26.1;38.8
74427;BME280;62859;53.906;27.430;2023-08-24T09:20:52;1009.7;;;26.3;38.6
74427;BME280;62859;53.906;27.430;2023-08-24T09:26:06;1009.7;;;26.4;38.2
74427;BME280;62859;53.906;27.430;2023-08-24T09:30:59;1009.8;;;26.4;38.1
74427;BME280;62859;53.906;27.430;2023-08-24T09:35:54;1009.8;;;26.4;37.5
74427;BME280;62859;53.906;27.430;2023-08-24T09:40:38;1009.8;;;26.1;38.2
74427;BME280;62859;53.906;27.430;2023-08-24T09:45:30;1009.9;;;25.9;38.1
74427;BME280;62859;53.906;27.430;2023-08-24T09:50:34;1009.9;;;25.7;38.3
74427;BME280;62859;53.906;27.430;2023-08-24T09:55:42;1009.9;;;25.5;38.4
74427;BME280;62859;53.906;27.430;2023-08-24T10:01:06;1010;;;25.3;39
74427;BME280;62859;53.906;27.430;2023-08-24T10:05:58;1010;;;25.2;39.6
74427;BME280;62859;53.906;27.430;2023-08-24T10:10:55;1010;;;25.1;39.8
74427;BME280;62859;53.906;27.430;2023-08-24T10:15:34;1010;;;25;40
74427;BME280;62859;53.906;27.430;2023-08-24T10:20:30;1010;;;24.9;40.6
74427;BME280;62859;53.906;27.430;2023-08-24T10:26:06;1010;;;24.7;41.4
74427;BME280;62859;53.906;27.430;2023-08-24T10:30:42;1010;;;24.6;43.9
74427;BME280;62859;53.906;27.430;2023-08-24T10:35:40;1010;;;24.3;46.8
74427;BME280;62859;53.906;27.430;2023-08-24T10:41:01;1009.9;;;23.9;48.1
74427;BME280;62859;53.906;27.430;2023-08-24T10:46:11;1009.9;;;23.8;48
74427;BME280;62859;53.906;27.430;2023-08-24T10:50:30;1009.9;;;23.5;48.9
74427;BME280;62859;53.906;27.430;2023-08-24T10:55:44;1009.9;;;23.4;50.1
74427;BME280;62859;53.906;27.430;2023-08-24T11:00:58;1009.8;;;23.3;50.5
74427;BME280;62859;53.906;27.430;2023-08-24T11:05:31;1009.7;;;23.1;51.5
74427;BME280;62859;53.906;27.430;2023-08-24T11:10:45;1009.7;;;22.9;51.9
74427;BME280;62859;53.906;27.430;2023-08-24T11:15:30;1009.7;;;22.8;52.7
74427;BME280;62859;53.906;27.430;2023-08-24T11:21:06;1009.7;;;22.7;52.5
74427;BME280;62859;53.906;27.430;2023-08-24T11:25:30;1009.6;;;22.6;52.1
74427;BME280;62859;53.906;27.430;2023-08-24T11:30:30;1009.6;;;22.6;52.9
74427;BME280;62859;53.906;27.430;2023-08-24T11:36:06;1009.6;;;22.4;54.1
74427;BME280;62859;53.906;27.430;2023-08-24T11:40:46;1009.6;;;22.3;54.2
74427;BME280;62859;53.906;27.430;2023-08-24T11:45:30;1009.7;;;22.4;53.8
74427;BME280;62859;53.906;27.430;2023-08-24T11:50:40;1009.7;;;22.6;53.1
74427;BME280;62859;53.906;27.430;2023-08-24T11:55:52;1009.7;;;22.9;52.5
74427;BME280;62859;53.906;27.430;2023-08-24T12:00:30;1009.6;;;23.1;52
74427;BME280;62859;53.906;27.430;2023-08-24T12:05:30;1009.5;;;23.2;51.9
74427;BME280;62859;53.906;27.430;2023-08-24T12:11:10;1009.5;;;23.3;52
74427;BME280;62859;53.906;27.430;2023-08-24T12:15:52;1009.4;;;23.3;52.1
74427;BME280;62859;53.906;27.430;2023-08-24T12:20:44;1009.3;;;23.4;51.8
74427;BME280;62859;53.906;27.430;2023-08-24T12:25:36;1009.2;;;23.5;51.7
74427;BME280;62859;53.906;27.430;2023-08-24T12:30:30;1009.2;;;23.7;51.4
74427;BME280;62859;53.906;27.430;2023-08-24T12:35:34;1009.3;;;23.9;50.4
74427;BME280;62859;53.906;27.430;2023-08-24T12:41:06;1009.2;;;24;49.8
74427;BME280;62859;53.906;27.430;2023-08-24T12:45:54;1009.1;;;24.3;49.6
74427;BME280;62859;53.906;27.430;2023-08-24T12:50:48;1009.1;;;24.6;48.9
74427;BME280;62859;53.906;27.430;2023-08-24T12:55:52;1009;;;25.4;47.6
74427;BME280;62859;53.906;27.430;2023-08-24T13:00:40;1008.9;;;26.1;47.1
74427;BME280;62859;53.906;27.430;2023-08-24T13:05:30;1008.9;;;26.7;45.1
74427;BME280;62859;53.906;27.430;2023-08-24T13:10:30;1008.9;;;27.2;43.1
74427;BME280;62859;53.906;27.430;2023-08-24T13:16:06;1008.9;;;27.7;41.7
74427;BME280;62859;53.906;27.430;2023-08-24T13:20:40;1008.9;;;28.2;40.4
74427;BME280;62859;53.906;27.430;2023-08-24T13:25:50;1008.8;;;28.6;39.7
74427;BME280;62859;53.906;27.430;2023-08-24T13:30:38;1008.8;;;28.8;38.5
74427;BME280;62859;53.906;27.430;2023-08-24T13:35:52;1008.7;;;29;37.6
74427;BME280;62859;53.906;27.430;2023-08-24T13:40:32;1008.7;;;29.3;36.9
74427;BME280;62859;53.906;27.430;2023-08-24T13:45:52;1008.7;;;29.5;36.5
74427;BME280;62859;53.906;27.430;2023-08-24T13:51:04;1008.6;;;29.4;36.7
74427;BME280;62859;53.906;27.430;2023-08-24T13:56:05;1008.6;;;29.4;36.8
74427;BME280;62859;53.906;27.430;2023-08-24T14:01:04;1008.5;;;29.3;36.6
74427;BME280;62859;53.906;27.430;2023-08-24T14:06:04;1008.5;;;29.1;35.5
74427;BME280;62859;53.906;27.430;2023-08-24T14:10:30;1008.5;;;28.8;36.1
74427;BME280;62859;53.906;27.430;2023-08-24T14:15:32;1008.4;;;28.6;35.8
74427;BME280;62859;53.906;27.430;2023-08-24T14:20:33;1008.4;;;28.5;36.5
74427;BME280;62859;53.906;27.430;2023-08-24T14:26:08;1008.4;;;28.3;37.1
74427;BME280;62859;53.906;27.430;2023-08-24T14:30:58;1008.3;;;28.3;37.3
74427;BME280;62859;53.906;27.430;2023-08-24T14:35:54;1008.3;;;28.2;38.1
74427;BME280;62859;53.906;27.430;2023-08-24T14:41:06;1008.3;;;28.1;38.2
74427;BME280;62859;53.906;27.430;2023-08-24T14:45:44;1008.3;;;28;38.2
74427;BME280;62859;53.906;27.430;2023-08-24T14:50:30;1008.2;;;27.7;38.3
74427;BME280;62859;53.906;27.430;2023-08-24T14:55:46;1008.2;;;27.5;38.8
74427;BME280;62859;53.906;27.430;2023-08-24T15:01:04;1008.3;;;27.3;39.4
74427;BME280;62859;53.906;27.430;2023-08-24T15:05:55;1008.3;;;27.1;39.9
74427;BME280;62859;53.906;27.430;2023-08-24T15:10:54;1008.2;;;26.9;40.4
74427;BME280;62859;53.906;27.430;2023-08-24T15:15:40;1008.2;;;26.8;40.6
74427;BME280;62859;53.906;27.430;2023-08-24T15:20:44;1008.2;;;26.6;40.5
74427;BME280;62859;53.906;27.430;2023-08-24T15:26:06;1008.2;;;26.4;40
74427;BME280;62859;53.906;27.430;2023-08-24T15:30:42;1008.3;;;26.2;40
74427;BME280;62859;53.906;27.430;2023-08-24T15:35:40;1008.2;;;25.9;41.1
74427;BME280;62859;53.906;27.430;2023-08-24T15:40:54;1008.2;;;25.7;41.8
74427;BME280;62859;53.906;27.430;2023-08-24T15:46:06;1008.2;;;25.5;41.9
74427;BME280;62859;53.906;27.430;2023-08-24T15:50:46;1008.3;;;25.5;41.8
74427;BME280;62859;53.906;27.430;2023-08-24T15:55:49;1008.3;;;25.3;42
74427;BME280;62859;53.906;27.430;2023-08-24T16:00:58;1008.3;;;25.2;42.5
74427;BME280;62859;53.906;27.430;2023-08-24T16:05:42;1008.4;;;25;43.9
74427;BME280;62859;53.906;27.430;2023-08-24T16:10:34;1008.3;;;24.8;44.9
74427;BME280;62859;53.906;27.430;2023-08-24T16:15:40;1008.2;;;24.8;45.4
74427;BME280;62859;53.906;27.430;2023-08-24T16:21:06;1008.2;;;24.6;46.1
74427;BME280;62859;53.906;27.430;2023-08-24T16:25:34;1008.1;;;24.5;46.4
74427;BME280;62859;53.906;27.430;2023-08-24T16:30:34;1008.1;;;24.4;46.6
74427;BME280;62859;53.906;27.430;2023-08-24T16:36:06;1008.2;;;24.3;46.9
74427;BME280;62859;53.906;27.430;2023-08-24T16:40:58;1008.2;;;24.2;47.2
74427;BME280;62859;53.906;27.430;2023-08-24T16:45:34;1008.2;;;24.1;47.4
74427;BME280;62859;53.906;27.430;2023-08-24T16:50:30;1008.2;;;24;47.7
74427;BME280;62859;53.906;27.430;2023-08-24T16:55:42;1008.2;;;24;48.1
74427;BME280;62859;53.906;27.430;2023-08-24T17:00:42;1008.2;;;24;48.6
74427;BME280;62859;53.906;27.430;2023-08-24T17:05:52;1008.1;;;23.8;49
74427;BME280;62859;53.906;27.430;2023-08-24T17:11:06;1008.1;;;23.7;49.1
74427;BME280;62859;53.906;27.430;2023-08-24T17:15:52;1008.1;;;23.7;49.1
74427;BME280;62859;53.906;27.430;2023-08-24T17:20:44;1008.1;;;23.6;49.3
74427;BME280;62859;53.906;27.430;2023-08-24T17:25:40;1008.1;;;23.5;49.5
74427;BME280;62859;53.906;27.430;2023-08-24T17:30:34;1008.1;;;23.4;49.8
74427;BME280;62859;53.906;27.430;2023-08-24T17:35:30;1008.1;;;23.3;50.1
74427;BME280;62859;53.906;27.430;2023-08-24T17:40:46;1008.2;;;23.2;50.1
74427;BME280;62859;53.906;27.430;2023-08-24T17:45:54;1008.2;;;23.2;50.5
74427;BME280;62859;53.906;27.430;2023-08-24T17:50:52;1008.3;;;23.1;51.1
74427;BME280;62859;53.906;27.430;2023-08-24T17:55:32;1008.4;;;23;51.7
74427;BME280;62859;53.906;27.430;2023-08-24T18:00:30;1008.4;;;23.1;51.6
74427;BME280;62859;53.906;27.430;2023-08-24T18:06:06;1008.4;;;23;52.1
74427;BME280;62859;53.906;27.430;2023-08-24T18:10:30;1008.4;;;22.9;52.3
74427;BME280;62859;53.906;27.430;2023-08-24T18:16:06;1008.5;;;22.9;52.4
74427;BME280;62859;53.906;27.430;2023-08-24T18:20:44;1008.5;;;22.9;52.4
74427;BME280;62859;53.906;27.430;2023-08-24T18:25:52;1008.5;;;22.8;52.5
74427;BME280;62859;53.906;27.430;2023-08-24T18:31:06;1008.6;;;22.8;52.7
74427;BME280;62859;53.906;27.430;2023-08-24T18:35:54;1008.6;;;22.8;52.5
74427;BME280;62859;53.906;27.430;2023-08-24T18:40:38;1008.7;;;22.8;52.5
74427;BME280;62859;53.906;27.430;2023-08-24T18:45:54;1008.7;;;22.8;52.3
74427;BME280;62859;53.906;27.430;2023-08-24T18:51:07;1008.7;;;22.8;52.3
74427;BME280;62859;53.906;27.430;2023-08-24T18:56:06;1008.7;;;22.8;52.5
74427;BME280;62859;53.906;27.430;2023-08-24T19:01:11;1008.7;;;22.7;52.6
74427;BME280;62859;53.906;27.430;2023-08-24T19:06:08;1008.6;;;22.7;53
74427;BME280;62859;53.906;27.430;2023-08-24T19:10:37;1008.6;;;22.6;53.2
74427;BME280;62859;53.906;27.430;2023-08-24T19:15:36;1008.6;;;22.5;53.5
74427;BME280;62859;53.906;27.430;2023-08-24T19:20:56;1008.5;;;22.5;53.5
74427;BME280;62859;53.906;27.430;2023-08-24T19:26:08;1008.5;;;22.5;53.7
74427;BME280;62859;53.906;27.430;2023-08-24T19:31:00;1008.4;;;22.4;53.7
74427;BME280;62859;53.906;27.430;2023-08-24T19:35:56;1008.5;;;22.4;53.8
74427;BME280;62859;53.906;27.430;2023-08-24T19:40:40;1008.5;;;22.3;53.9
74427;BME280;62859;53.906;27.430;2023-08-24T19:45:30;1008.5;;;22.3;54
74427;BME280;62859;53.906;27.430;2023-08-24T19:51:08;1008.5;;;22.2;54.4
74427;BME280;62859;53.906;27.430;2023-08-24T19:55:38;1008.5;;;22.2;54.8
74427;BME280;62859;53.906;27.430;2023-08-24T20:00:46;1008.5;;;22.1;54.8
74427;BME280;62859;53.906;27.430;2023-08-24T20:06:00;1008.5;;;22.1;54.9
74427;BME280;62859;53.906;27.430;2023-08-24T20:11:08;1008.4;;;22;55.1
74427;BME280;62859;53.906;27.430;2023-08-24T20:16:02;1008.4;;;22.1;55
74427;BME280;62859;53.906;27.430;2023-08-24T20:20:42;1008.4;;;22.1;55
74427;BME280;62859;53.906;27.430;2023-08-24T20:25:32;1008.4;;;22;55.2
74427;BME280;62859;53.906;27.430;2023-08-24T20:30:48;1008.4;;;22;55.2
74427;BME280;62859;53.906;27.430;2023-08-24T20:35:36;1008.4;;;22;55.3
74427;BME280;62859;53.906;27.430;2023-08-24T20:40:44;1008.5;;;22;55.4
74427;BME280;62859;53.906;27.430;2023-08-24T20:46:08;1008.5;;;22;55.2
74427;BME280;62859;53.906;27.430;2023-08-24T20:50:42;1008.5;;;21.9;55.2
74427;BME280;62859;53.906;27.430;2023-08-24T20:55:36;1008.5;;;21.9;55.1
74427;BME280;62859;53.906;27.430;2023-08-24T21:01:08;1008.5;;;21.9;55.3
74427;BME280;62859;53.906;27.430;2023-08-24T21:05:48;1008.5;;;21.9;55.3
74427;BME280;62859;53.906;27.430;2023-08-24T21:10:55;1008.5;;;21.8;55.4
74427;BME280;62859;53.906;27.430;2023-08-24T21:15:44;1008.4;;;21.8;55.4
74427;BME280;62859;53.906;27.430;2023-08-24T21:20:55;1008.5;;;21.8;55.4
74427;BME280;62859;53.906;27.430;2023-08-24T21:25:30;1008.5;;;21.7;55.8
74427;BME280;62859;53.906;27.430;2023-08-24T21:30:36;1008.5;;;21.7;56
74427;BME280;62859;53.906;27.430;2023-08-24T21:36:08;1008.6;;;21.6;56.2
74427;BME280;62859;53.906;27.430;2023-08-24T21:40:44;1008.6;;;21.6;56.4
74427;BME280;62859;53.906;27.430;2023-08-24T21:45:36;1008.7;;;21.5;56.4
74427;BME280;62859;53.906;27.430;2023-08-24T21:50:42;1008.7;;;21.5;56.5
74427;BME280;62859;53.906;27.430;2023-08-24T21:55:36;1008.7;;;21.5;56.4
74427;BME280;62859;53.906;27.430;2023-08-24T22:00:36;1008.7;;;21.4;56.3
74427;BME280;62859;53.906;27.430;2023-08-24T22:05:30;1008.6;;;21.4;56.4
74427;BME280;62859;53.906;27.430;2023-08-24T22:10:56;1008.5;;;21.3;56.7
74427;BME280;62859;53.906;27.430;2023-08-24T22:15:54;1008.4;;;21.3;56.7
74427;BME280;62859;53.906;27.430;2023-08-24T22:20:54;1008.4;;;21.3;56.6
74427;BME280;62859;53.906;27.430;2023-08-24T22:25:30;1008.4;;;21.2;56.9
74427;BME280;62859;53.906;27.430;2023-08-24T22:30:30;1008.4;;;21.2;56.9
74427;BME280;62859;53.906;27.430;2023-08-24T22:35:30;1008.3;;;21.1;56.9
74427;BME280;62859;53.906;27.430;2023-08-24T22:41:08;1008.3;;;21.1;57
74427;BME280;62859;53.906;27.430;2023-08-24T22:45:46;1008.2;;;21;57.2
74427;BME280;62859;53.906;27.430;2023-08-24T22:50:54;1008.2;;;21;57.2
74427;BME280;62859;53.906;27.430;2023-08-24T22:56:06;1008.2;;;20.9;57.3
74427;BME280;62859;53.906;27.430;2023-08-24T23:00:56;1008.1;;;20.9;57.5
74427;BME280;62859;53.906;27.430;2023-08-24T23:05:42;1008.1;;;20.9;57.5
74427;BME280;62859;53.906;27.430;2023-08-24T23:10:50;1008;;;20.9;57.5
74427;BME280;62859;53.906;27.430;2023-08-24T23:16:08;1008;;;21;57.4
74427;BME280;62859;53.906;27.430;2023-08-24T23:21:08;1007.9;;;20.9;57.4
74427;BME280;62859;53.906;27.430;2023-08-24T23:26:10;1008;;;20.8;57.5
74427;BME280;62859;53.906;27.430;2023-08-24T23:31:08;1008.1;;;20.8;57.3
74427;BME280;62859;53.906;27.430;2023-08-24T23:35:30;1008.2;;;20.8;57.4
74427;BME280;62859;53.906;27.430;2023-08-24T23:40:30;1008.1;;;20.8;57.2
74427;BME280;62859;53.906;27.430;2023-08-24T23:45:56;1008.1;;;20.7;57.3
74427;BME280;62859;53.906;27.430;2023-08-24T23:51:08;1008.2;;;20.6;57.5
74427;BME280;62859;53.906;27.430;2023-08-24T23:56:00;1008.2;;;20.6;57.5
